Time,TemperatureF,DewpointF,PressureIn,WindDirection,WindDirectionDegrees,WindSpeedMPH,WindSpeedGustMPH,Humidity,HourlyPrecipIn,Conditions,Clouds,dailyrainin,SolarRadiationWatts/m^2,SoftwareType,DateUTC
2013-12-27 00:03:00,29.0,22.0,-100.00,WSW,246,4.0,6.0,76,0.00,,,0.00,0.000000,,2013-12-27 05:03:00,
2013-12-27 00:12:00,29.0,22.0,-100.00,WSW,246,4.0,6.0,76,0.00,,,0.00,0.000000,,2013-12-27 05:12:00,
2013-12-27 00:22:00,29.0,22.0,-100.00,WSW,246,4.0,6.0,76,0.00,,,0.00,0.000000,,2013-12-27 05:22:00,
2013-12-27 00:52:00,27.0,22.0,-100.00,WSW,238,3.0,5.0,81,0.00,,,0.00,0.000000,,2013-12-27 05:52:00,
2013-12-27 01:02:00,27.0,22.0,-100.00,WSW,238,3.0,5.0,81,0.00,,,0.00,0.000000,,2013-12-27 06:02:00,
2013-12-27 01:12:00,27.0,22.0,-100.00,WSW,238,3.0,5.0,81,0.00,,,0.00,0.000000,,2013-12-27 06:12:00,
2013-12-27 01:22:00,27.0,22.0,-100.00,WSW,238,3.0,5.0,81,0.00,,,0.00,0.000000,,2013-12-27 06:22:00,
2013-12-27 01:52:00,27.0,22.0,-100.00,WSW,249,4.0,5.0,82,0.00,,,0.00,0.000000,,2013-12-27 06:52:00,
2013-12-27 02:02:00,27.0,22.0,-100.00,WSW,249,4.0,5.0,82,0.00,,,0.00,0.000000,,2013-12-27 07:02:00,
2013-12-27 02:12:00,27.0,22.0,-100.00,WSW,249,4.0,5.0,82,0.00,,,0.00,0.000000,,2013-12-27 07:12:00,
2013-12-27 02:22:00,27.0,22.0,-100.00,WSW,249,4.0,5.0,82,0.00,,,0.00,0.000000,,2013-12-27 07:22:00,
2013-12-27 02:52:00,26.0,22.0,-100.00,SW,232,3.0,5.0,84,0.00,,,0.00,0.000000,,2013-12-27 07:52:00,
2013-12-27 03:02:00,26.0,22.0,-100.00,SW,232,3.0,5.0,84,0.00,,,0.00,0.000000,,2013-12-27 08:02:00,
2013-12-27 03:11:00,26.0,22.0,-100.00,SW,232,3.0,5.0,84,0.00,,,0.00,0.000000,,2013-12-27 08:11:00,
2013-12-27 03:22:00,26.0,22.0,-100.00,SW,232,3.0,5.0,84,0.00,,,0.00,0.000000,,2013-12-27 08:22:00,
2013-12-27 03:52:00,28.0,23.0,-100.00,WSW,240,4.0,5.0,82,0.00,,,0.00,0.000000,,2013-12-27 08:52:00,
2013-12-27 04:02:00,28.0,23.0,-100.00,WSW,240,4.0,5.0,82,0.00,,,0.00,0.000000,,2013-12-27 09:02:00,
2013-12-27 04:11:00,28.0,23.0,-100.00,WSW,240,4.0,5.0,82,0.00,,,0.00,0.000000,,2013-12-27 09:11:00,
2013-12-27 04:22:00,28.0,23.0,-100.00,WSW,240,4.0,5.0,82,0.00,,,0.00,0.000000,,2013-12-27 09:22:00,
2013-12-27 04:54:00,32.0,20.0,-100.00,West,280,7.0,11.0,62,0.00,,,0.00,0.000000,,2013-12-27 09:54:00,
2013-12-27 05:03:00,32.0,20.0,-100.00,West,280,7.0,11.0,62,0.00,,,0.00,0.000000,,2013-12-27 10:03:00,
2013-12-27 05:12:00,32.0,20.0,-100.00,West,280,7.0,11.0,62,0.00,,,0.00,0.000000,,2013-12-27 10:12:00,
2013-12-27 05:23:00,32.0,20.0,-100.00,West,280,7.0,11.0,62,0.00,,,0.00,0.000000,,2013-12-27 10:23:00,
2013-12-27 05:53:00,32.0,20.0,-100.00,West,277,6.0,10.0,60,0.00,,,0.00,0.000000,,2013-12-27 10:53:00,
2013-12-27 06:03:00,32.0,20.0,-100.00,West,277,6.0,10.0,60,0.00,,,0.00,0.000000,,2013-12-27 11:03:00,
2013-12-27 06:12:00,32.0,20.0,-100.00,West,277,6.0,10.0,60,0.00,,,0.00,0.000000,,2013-12-27 11:12:00,
2013-12-27 06:22:00,32.0,20.0,-100.00,West,277,6.0,10.0,60,0.00,,,0.00,0.000000,,2013-12-27 11:22:00,
2013-12-27 06:53:00,31.0,18.0,-100.00,West,276,5.0,9.0,59,0.00,,,0.00,0.000000,,2013-12-27 11:53:00,
2013-12-27 07:02:00,31.0,18.0,-100.00,West,276,5.0,9.0,59,0.00,,,0.00,0.000000,,2013-12-27 12:02:00,
2013-12-27 07:12:00,31.0,18.0,-100.00,West,276,5.0,9.0,59,0.00,,,0.00,0.000000,,2013-12-27 12:12:00,
2013-12-27 07:22:00,31.0,18.0,-100.00,West,276,5.0,9.0,59,0.00,,,0.00,0.000000,,2013-12-27 12:22:00,
2013-12-27 07:53:00,28.0,19.0,-100.00,SW,234,1.0,6.0,68,0.00,,,0.00,1.000000,,2013-12-27 12:53:00,
2013-12-27 08:02:00,28.0,19.0,-100.00,SW,234,1.0,6.0,68,0.00,,,0.00,1.000000,,2013-12-27 13:02:00,
2013-12-27 08:12:00,28.0,19.0,-100.00,SW,234,1.0,6.0,68,0.00,,,0.00,1.000000,,2013-12-27 13:12:00,
2013-12-27 08:22:00,28.0,19.0,-100.00,SW,234,1.0,6.0,68,0.00,,,0.00,1.000000,,2013-12-27 13:22:00,
2013-12-27 08:53:00,31.0,24.0,-100.00,WSW,253,2.0,4.0,76,0.00,,,0.00,56.000000,,2013-12-27 13:53:00,
2013-12-27 09:02:00,31.0,24.0,-100.00,WSW,253,2.0,4.0,76,0.00,,,0.00,56.000000,,2013-12-27 14:02:00,
2013-12-27 09:12:00,31.0,24.0,-100.00,WSW,253,2.0,4.0,76,0.00,,,0.00,56.000000,,2013-12-27 14:12:00,
2013-12-27 09:22:00,31.0,24.0,-100.00,WSW,253,2.0,4.0,76,0.00,,,0.00,56.000000,,2013-12-27 14:22:00,
2013-12-27 10:12:00,39.0,20.0,-100.00,NW,305,3.0,6.0,46,0.00,,,0.00,210.000000,,2013-12-27 15:12:00,
2013-12-27 10:22:00,39.0,20.0,-100.00,NW,305,3.0,6.0,46,0.00,,,0.00,210.000000,,2013-12-27 15:22:00,
2013-12-27 10:54:00,40.0,20.0,-100.00,NNE,24,3.0,6.0,45,0.00,,,0.00,345.000000,,2013-12-27 15:54:00,
2013-12-27 11:03:00,40.0,20.0,-100.00,NNE,24,3.0,6.0,45,0.00,,,0.00,345.000000,,2013-12-27 16:03:00,
2013-12-27 11:13:00,40.0,20.0,-100.00,NNE,24,3.0,6.0,45,0.00,,,0.00,345.000000,,2013-12-27 16:13:00,
2013-12-27 11:23:00,40.0,20.0,-100.00,NNE,24,3.0,6.0,45,0.00,,,0.00,345.000000,,2013-12-27 16:23:00,
2013-12-27 11:53:00,42.0,22.0,-100.00,East,97,3.0,5.0,45,0.00,,,0.00,435.000000,,2013-12-27 16:53:00,
2013-12-27 12:02:00,42.0,22.0,-100.00,East,97,3.0,5.0,45,0.00,,,0.00,435.000000,,2013-12-27 17:02:00,
2013-12-27 12:12:00,42.0,22.0,-100.00,East,97,3.0,5.0,45,0.00,,,0.00,435.000000,,2013-12-27 17:12:00,
2013-12-27 12:22:00,42.0,22.0,-100.00,East,97,3.0,5.0,45,0.00,,,0.00,435.000000,,2013-12-27 17:22:00,
2013-12-27 12:53:00,48.0,17.0,-100.00,West,260,7.0,13.0,29,0.00,,,0.00,481.000000,,2013-12-27 17:53:00,
2013-12-27 13:02:00,48.0,17.0,-100.00,West,260,7.0,13.0,29,0.00,,,0.00,481.000000,,2013-12-27 18:02:00,
2013-12-27 13:12:00,48.0,17.0,-100.00,West,260,7.0,13.0,29,0.00,,,0.00,481.000000,,2013-12-27 18:12:00,
2013-12-27 13:22:00,48.0,17.0,-100.00,West,260,7.0,13.0,29,0.00,,,0.00,481.000000,,2013-12-27 18:22:00,
2013-12-27 13:53:00,49.0,16.0,-100.00,West,271,9.0,15.0,27,0.00,,,0.00,467.000000,,2013-12-27 18:53:00,
2013-12-27 14:02:00,49.0,16.0,-100.00,West,271,9.0,15.0,27,0.00,,,0.00,467.000000,,2013-12-27 19:02:00,
2013-12-27 14:12:00,49.0,16.0,-100.00,West,271,9.0,15.0,27,0.00,,,0.00,467.000000,,2013-12-27 19:12:00,
2013-12-27 14:22:00,49.0,16.0,-100.00,West,271,9.0,15.0,27,0.00,,,0.00,467.000000,,2013-12-27 19:22:00,
2013-12-27 14:52:00,50.0,16.0,-100.00,WSW,256,8.0,15.0,25,0.00,,,0.00,397.000000,,2013-12-27 19:52:00,
2013-12-27 15:02:00,50.0,16.0,-100.00,WSW,256,8.0,15.0,25,0.00,,,0.00,397.000000,,2013-12-27 20:02:00,
2013-12-27 15:11:00,50.0,16.0,-100.00,WSW,256,8.0,15.0,25,0.00,,,0.00,397.000000,,2013-12-27 20:11:00,
2013-12-27 15:21:00,50.0,16.0,-100.00,WSW,256,8.0,15.0,25,0.00,,,0.00,397.000000,,2013-12-27 20:21:00,
2013-12-27 15:52:00,49.0,16.0,-100.00,WSW,238,7.0,17.0,27,0.00,,,0.00,279.000000,,2013-12-27 20:52:00,
2013-12-27 16:02:00,49.0,16.0,-100.00,WSW,238,7.0,17.0,27,0.00,,,0.00,279.000000,,2013-12-27 21:02:00,
2013-12-27 16:11:00,49.0,16.0,-100.00,WSW,238,7.0,17.0,27,0.00,,,0.00,279.000000,,2013-12-27 21:11:00,
2013-12-27 16:22:00,49.0,16.0,-100.00,WSW,238,7.0,17.0,27,0.00,,,0.00,279.000000,,2013-12-27 21:22:00,
2013-12-27 16:53:00,45.0,14.0,-100.00,WSW,254,5.0,13.0,28,0.00,,,0.00,85.000000,,2013-12-27 21:53:00,
2013-12-27 17:03:00,45.0,14.0,-100.00,WSW,254,5.0,13.0,28,0.00,,,0.00,85.000000,,2013-12-27 22:03:00,
2013-12-27 17:13:00,45.0,14.0,-100.00,WSW,254,5.0,13.0,28,0.00,,,0.00,85.000000,,2013-12-27 22:13:00,
2013-12-27 17:23:00,45.0,14.0,-100.00,WSW,254,5.0,13.0,28,0.00,,,0.00,85.000000,,2013-12-27 22:23:00,
2013-12-27 17:53:00,40.0,16.0,-100.00,SW,229,4.0,6.0,37,0.00,,,0.00,4.000000,,2013-12-27 22:53:00,
2013-12-27 18:02:00,40.0,16.0,-100.00,SW,229,4.0,6.0,37,0.00,,,0.00,4.000000,,2013-12-27 23:02:00,
2013-12-27 18:12:00,40.0,16.0,-100.00,SW,229,4.0,6.0,37,0.00,,,0.00,4.000000,,2013-12-27 23:12:00,
2013-12-27 18:22:00,40.0,16.0,-100.00,SW,229,4.0,6.0,37,0.00,,,0.00,4.000000,,2013-12-27 23:22:00,
2013-12-27 18:53:00,40.0,20.0,-100.00,SW,233,5.0,10.0,45,0.00,,,0.00,0.000000,,2013-12-27 23:53:00,
2013-12-27 19:02:00,40.0,20.0,-100.00,SW,233,5.0,10.0,45,0.00,,,0.00,0.000000,,2013-12-28 00:02:00,
2013-12-27 19:11:00,40.0,20.0,-100.00,SW,233,5.0,10.0,45,0.00,,,0.00,0.000000,,2013-12-28 00:11:00,
2013-12-27 19:22:00,40.0,20.0,-100.00,SW,233,5.0,10.0,45,0.00,,,0.00,0.000000,,2013-12-28 00:22:00,
2013-12-27 19:53:00,38.0,22.0,-100.00,SW,222,4.0,9.0,52,0.00,,,0.00,0.000000,,2013-12-28 00:53:00,
2013-12-27 20:02:00,38.0,22.0,-100.00,SW,222,4.0,9.0,52,0.00,,,0.00,0.000000,,2013-12-28 01:02:00,
2013-12-27 20:12:00,38.0,22.0,-100.00,SW,222,4.0,9.0,52,0.00,,,0.00,0.000000,,2013-12-28 01:12:00,
2013-12-27 20:22:00,38.0,22.0,-100.00,SW,222,4.0,9.0,52,0.00,,,0.00,0.000000,,2013-12-28 01:22:00,
2013-12-27 20:52:00,37.0,22.0,-100.00,SW,224,4.0,10.0,55,0.00,,,0.00,0.000000,,2013-12-28 01:52:00,
2013-12-27 21:02:00,37.0,22.0,-100.00,SW,224,4.0,10.0,55,0.00,,,0.00,0.000000,,2013-12-28 02:02:00,
2013-12-27 21:12:00,37.0,22.0,-100.00,SW,224,4.0,10.0,55,0.00,,,0.00,0.000000,,2013-12-28 02:12:00,
2013-12-27 21:22:00,37.0,22.0,-100.00,SW,224,4.0,10.0,55,0.00,,,0.00,0.000000,,2013-12-28 02:22:00,
2013-12-27 21:52:00,37.0,23.0,-100.00,SW,228,6.0,11.0,56,0.00,,,-99.99,0.000000,,2013-12-28 02:52:00,
2013-12-27 22:02:00,37.0,23.0,-100.00,SW,228,6.0,11.0,56,0.00,,,-99.99,0.000000,,2013-12-28 03:02:00,
2013-12-27 22:12:00,37.0,23.0,-100.00,SW,228,6.0,11.0,56,0.00,,,-99.99,0.000000,,2013-12-28 03:12:00,
2013-12-27 22:22:00,37.0,23.0,-100.00,SW,228,6.0,11.0,56,0.00,,,-99.99,0.000000,,2013-12-28 03:22:00,
2013-12-27 22:53:00,37.0,24.0,-100.00,SW,231,6.0,9.0,60,0.00,,,0.00,0.000000,,2013-12-28 03:53:00,
2013-12-27 23:04:00,37.0,24.0,-100.00,SW,231,6.0,9.0,60,0.00,,,0.00,0.000000,,2013-12-28 04:04:00,
2013-12-27 23:13:00,37.0,24.0,-100.00,SW,231,6.0,9.0,60,0.00,,,0.00,0.000000,,2013-12-28 04:13:00,
2013-12-27 23:22:00,37.0,24.0,-100.00,SW,231,6.0,9.0,60,0.00,,,0.00,0.000000,,2013-12-28 04:22:00,
2013-12-27 23:53:00,36.0,26.0,-100.00,SW,227,5.0,10.0,66,0.00,,,0.00,0.000000,,2013-12-28 04:53:00,